Time;durP1;ratioP1;P1;durP2;ratioP2;P2;SDS_P1;SDS_P2;PMS_P1;PMS_P2;Temp;Humidity;BMP_temperature;BMP_pressure;BME280_temperature;BME280_humidity;BME280_pressure;Samples;Min_cycle;Max_cycle;Signal;HPM_P1;HPM_P2
2022/11/24 00:01:47;;;;;;;;;2.50;1.00;;;;;10.11;72.70;100441.75;5060101;28;46194;-82
2022/11/24 00:04:13;;;;;;;;;4.50;1.00;;;;;10.12;72.83;100427.84;5078015;28;45383;-81
2022/11/24 00:06:38;;;;;;;;;2.25;1.00;;;;;10.16;72.97;100432.03;5077364;28;61527;-81
2022/11/24 00:09:04;;;;;;;;;4.50;1.00;;;;;10.19;73.27;100437.16;5059901;28;45395;-81
2022/11/24 00:11:31;;;;;;;;;4.50;2.50;;;;;10.19;72.87;100442.34;5077748;27;45992;-81
2022/11/24 00:13:57;;;;;;;;;3.00;1.00;;;;;10.22;73.16;100448.31;5059535;28;45529;-81
2022/11/24 00:16:28;;;;;;;;;3.25;1.00;;;;;10.24;73.11;100449.09;5059869;28;45452;-81
2022/11/24 00:18:56;;;;;;;;;1.25;1.00;;;;;10.29;73.22;100443.78;5059760;28;45475;-81
2022/11/24 00:21:22;;;;;;;;;2.00;1.00;;;;;10.34;72.51;100431.47;5076925;27;46473;-81
2022/11/24 00:23:48;;;;;;;;;3.50;1.00;;;;;10.37;72.86;100428.78;5076411;27;46003;-81
2022/11/24 00:26:16;;;;;;;;;1.75;1.00;;;;;10.41;72.59;100422.56;5077743;27;45301;-81
2022/11/24 00:28:43;;;;;;;;;1.75;1.75;;;;;10.42;72.70;100421.69;5077500;28;45500;-81
2022/11/24 00:31:22;;;;;;;;;2.75;1.00;;;;;10.45;72.36;100413.75;5059487;28;45409;-81
2022/11/24 00:33:49;;;;;;;;;4.00;1.00;;;;;10.48;72.30;100394.59;5058768;28;45679;-81
2022/11/24 00:36:16;;;;;;;;;2.00;1.00;;;;;10.53;72.10;100407.44;5077648;27;45399;-81
2022/11/24 00:38:42;;;;;;;;;1.00;1.00;;;;;10.55;71.83;100387.41;5059575;27;45305;-81
2022/11/24 00:41:07;;;;;;;;;2.00;1.00;;;;;10.60;72.03;100385.50;5072602;28;48051;-81
2022/11/24 00:43:32;;;;;;;;;2.00;1.00;;;;;10.65;71.78;100409.63;5056186;28;65200;-81
2022/11/24 00:45:58;;;;;;;;;2.00;1.75;;;;;10.68;71.68;100406.06;5039163;28;45192;-82
2022/11/24 00:48:23;;;;;;;;;4.50;1.00;;;;;10.70;71.53;100392.09;5064129;27;68450;-81
2022/11/24 00:50:59;;;;;;;;;0.75;0.75;;;;;10.71;71.07;100390.34;5058185;28;70891;-82
2022/11/24 00:53:24;;;;;;;;;1.00;1.00;;;;;10.72;71.08;100394.66;5059226;28;45670;-82
2022/11/24 00:55:50;;;;;;;;;4.50;0.50;;;;;10.73;70.51;100417.16;5077348;28;45423;-82
2022/11/24 00:58:16;;;;;;;;;6.50;2.00;;;;;10.75;70.37;100410.16;5058731;28;45296;-82
2022/11/24 01:00:41;;;;;;;;;2.00;0.75;;;;;10.75;69.92;100407.56;5058049;28;71262;-81
2022/11/24 01:03:06;;;;;;;;;3.00;2.00;;;;;10.75;69.83;100425.78;5077066;28;45373;-81
2022/11/24 01:05:35;;;;;;;;;2.00;0.75;;;;;10.72;69.86;100433.72;5075220;28;62885;-82
2022/11/24 01:08:00;;;;;;;;;2.75;0.75;;;;;10.72;69.72;100444.13;5077042;28;45436;-82
2022/11/24 01:10:26;;;;;;;;;0.75;0.00;;;;;10.67;69.53;100431.25;5075962;28;70258;-82
2022/11/24 01:12:51;;;;;;;;;0.00;0.00;;;;;10.63;68.59;100434.88;5075791;27;71325;-81
2022/11/24 01:15:16;;;;;;;;;0.25;0.00;;;;;10.60;68.88;100434.97;5059065;28;45578;-82
2022/11/24 01:17:42;;;;;;;;;0.00;0.00;;;;;10.60;68.74;100450.56;5058862;28;45455;-82
2022/11/24 01:20:08;;;;;;;;;0.00;0.00;;;;;10.57;68.01;100454.16;5074638;28;67862;-82
2022/11/24 01:22:33;;;;;;;;;0.25;0.00;;;;;10.56;67.87;100451.59;5076670;27;45428;-82
2022/11/24 01:24:59;;;;;;;;;0.00;0.00;;;;;10.55;68.05;100457.69;5076898;27;45317;-81
2022/11/24 01:27:24;;;;;;;;;0.25;0.00;;;;;10.53;67.54;100468.16;5057636;27;62032;-81
2022/11/24 01:29:49;;;;;;;;;0.50;0.00;;;;;10.51;68.13;100476.91;5057640;28;72875;-82
2022/11/24 01:32:15;;;;;;;;;0.00;0.00;;;;;10.49;67.70;100476.09;5073617;27;73002;-81
2022/11/24 01:34:40;;;;;;;;;0.00;0.00;;;;;10.45;67.58;100473.59;5057649;28;62213;-82
2022/11/24 01:37:05;;;;;;;;;0.50;0.00;;;;;10.42;67.76;100473.72;5076017;28;60145;-81
2022/11/24 01:39:31;;;;;;;;;0.00;0.00;;;;;10.42;67.76;100472.88;5075909;28;66138;-81
2022/11/24 01:42:00;;;;;;;;;3.00;0.00;;;;;10.39;67.88;100484.22;5075734;27;50740;-81
2022/11/24 01:44:28;;;;;;;;;1.00;0.00;;;;;10.37;67.82;100495.59;5076652;28;45344;-81
2022/11/24 01:46:59;;;;;;;;;2.75;0.00;;;;;10.34;68.24;100487.88;5076421;28;45222;-82
2022/11/24 01:49:30;;;;;;;;;0.25;0.00;;;;;10.31;68.01;100498.34;5076200;28;45467;-81
2022/11/24 01:52:00;;;;;;;;;0.00;0.00;;;;;10.26;67.80;100503.69;5058442;28;45389;-82
2022/11/24 01:54:32;;;;;;;;;1.25;0.00;;;;;10.23;67.79;100507.25;5057816;28;45421;-82
2022/11/24 01:57:01;;;;;;;;;0.00;0.00;;;;;10.24;67.90;100518.50;5076328;28;45566;-81
2022/11/24 01:59:27;;;;;;;;;0.00;0.00;;;;;10.21;67.93;100531.59;5058134;28;45671;-82
2022/11/24 02:01:54;;;;;;;;;0.00;0.00;;;;;10.18;68.18;100540.34;5075434;27;68954;-82
2022/11/24 02:04:24;;;;;;;;;0.50;0.00;;;;;10.15;67.93;100540.44;5058196;28;45274;-81
2022/11/24 02:06:50;;;;;;;;;0.00;0.00;;;;;10.13;68.13;100539.63;5058227;28;45359;-81
2022/11/24 02:09:22;;;;;;;;;1.00;0.00;;;;;10.11;68.25;100543.19;5057447;28;45400;-81
2022/11/24 02:11:47;;;;;;;;;0.00;0.00;;;;;10.11;68.12;100558.78;5041311;28;45974;-82
2022/11/24 02:14:14;;;;;;;;;0.00;0.00;;;;;10.08;67.97;100567.50;5057564;28;60731;-81
2022/11/24 02:16:42;;;;;;;;;0.00;0.00;;;;;10.06;68.31;100571.91;5058277;28;45405;-81
2022/11/24 02:19:16;;;;;;;;;0.00;0.00;;;;;10.02;68.62;100576.34;5058010;28;45455;-81
2022/11/24 02:21:42;;;;;;;;;1.00;0.00;;;;;9.98;68.80;100572.13;5057885;28;45455;-82
2022/11/24 02:24:34;;;;;;;;;0.00;0.00;;;;;9.97;68.82;100574.78;5057605;28;45505;-81
2022/11/24 02:27:00;;;;;;;;;0.00;0.00;;;;;9.95;68.99;100577.41;5075968;27;45520;-81
2022/11/24 02:29:25;;;;;;;;;0.75;0.00;;;;;9.94;69.13;100580.94;5075069;28;69015;-81
2022/11/24 02:31:55;;;;;;;;;0.00;0.00;;;;;9.93;69.79;100584.41;5057765;28;45391;-82
2022/11/24 02:34:20;;;;;;;;;1.00;0.00;;;;;9.90;69.86;100581.91;5058021;28;45250;-81
2022/11/24 02:36:45;;;;;;;;;0.00;0.00;;;;;9.90;70.05;100592.31;5057325;28;58131;-82
2022/11/24 02:39:12;;;;;;;;;0.00;0.00;;;;;9.88;70.17;100597.56;5074373;27;70453;-82
2022/11/24 02:41:41;;;;;;;;;2.00;0.00;;;;;9.87;70.01;100608.00;5057561;28;45767;-81
2022/11/24 02:44:06;;;;;;;;;0.75;0.00;;;;;9.85;70.47;100600.22;5092824;27;45566;-81
2022/11/24 02:46:32;;;;;;;;;0.00;0.00;;;;;9.85;71.14;100609.78;5060336;28;68182;-81
2022/11/24 02:48:57;;;;;;;;;2.00;0.00;;;;;9.83;71.30;100620.22;5078656;28;60143;-81
2022/11/24 02:51:22;;;;;;;;;0.00;0.00;;;;;9.79;71.77;100616.00;5080182;27;60470;-82
2022/11/24 02:53:48;;;;;;;;;1.25;0.00;;;;;9.76;72.14;100617.84;5077680;28;45258;-81
2022/11/24 02:56:13;;;;;;;;;1.50;0.25;;;;;9.74;72.22;100625.69;5077428;28;65160;-82
2022/11/24 02:58:38;;;;;;;;;0.00;0.00;;;;;9.75;72.76;100621.31;5076834;28;72073;-81
2022/11/24 03:01:04;;;;;;;;;0.00;0.00;;;;;9.72;73.12;100637.88;5078046;28;45404;-81
2022/11/24 03:03:29;;;;;;;;;0.25;0.00;;;;;9.73;72.84;100643.91;5077163;28;62596;-82
2022/11/24 03:05:54;;;;;;;;;1.00;0.00;;;;;9.72;72.99;100644.81;5078362;28;59395;-81
2022/11/24 03:08:20;;;;;;;;;0.00;0.00;;;;;9.69;73.25;100661.31;5076544;28;64403;-82
2022/11/24 03:10:45;;;;;;;;;0.00;0.00;;;;;9.70;73.35;100670.84;5077530;28;45260;-81
2022/11/24 03:13:10;;;;;;;;;0.25;0.25;;;;;9.65;73.21;100673.56;5078966;28;45379;-82
2022/11/24 03:15:36;;;;;;;;;4.00;0.50;;;;;9.63;73.33;100674.50;5077012;28;66000;-82
2022/11/24 03:18:01;;;;;;;;;0.00;0.00;;;;;9.64;73.53;100686.63;5077531;28;48118;-82
2022/11/24 03:20:27;;;;;;;;;0.25;0.00;;;;;9.63;73.83;100690.09;5077760;28;70452;-82
2022/11/24 03:22:52;;;;;;;;;0.75;0.75;;;;;9.63;73.44;100684.91;5076619;28;61386;-81
2022/11/24 03:25:18;;;;;;;;;0.00;0.00;;;;;9.60;74.01;100683.25;5078706;28;45582;-81
2022/11/24 03:27:43;;;;;;;;;2.00;0.00;;;;;9.59;73.88;100680.66;5078526;28;46113;-81
2022/11/24 03:30:09;;;;;;;;;0.00;0.00;;;;;9.60;73.80;100688.44;5077411;28;45415;-81
2022/11/24 03:32:34;;;;;;;;;0.00;0.00;;;;;9.57;74.00;100691.09;5078676;28;45372;-81
2022/11/24 03:34:59;;;;;;;;;0.00;0.00;;;;;9.56;73.79;100686.78;5077669;28;66754;-81
2022/11/24 03:37:25;;;;;;;;;0.25;0.25;;;;;9.55;73.78;100687.69;5076775;28;47470;-81
2022/11/24 03:39:50;;;;;;;;;1.75;0.00;;;;;9.51;73.77;100683.47;5076897;28;52787;-81
2022/11/24 03:42:15;;;;;;;;;0.00;0.00;;;;;9.52;73.84;100685.16;5076295;28;66484;-81
2022/11/24 03:44:41;;;;;;;;;2.00;0.00;;;;;9.49;74.01;100683.50;5077610;28;62686;-81
2022/11/24 03:47:06;;;;;;;;;0.25;0.00;;;;;9.48;74.44;100684.38;5076346;28;62357;-82
2022/11/24 03:49:31;;;;;;;;;0.00;0.00;;;;;9.47;73.95;100681.81;5077293;27;66931;-81
2022/11/24 03:51:57;;;;;;;;;0.00;0.00;;;;;9.47;74.24;100689.59;5078213;28;45348;-82
2022/11/24 03:54:22;;;;;;;;;0.50;0.00;;;;;9.45;74.04;100694.88;5077468;28;60236;-82
2022/11/24 03:56:47;;;;;;;;;0.00;0.00;;;;;9.43;74.07;100701.81;5076579;28;64698;-82
2022/11/24 03:59:13;;;;;;;;;0.00;0.00;;;;;9.43;73.80;100709.63;5076094;28;65645;-81
2022/11/24 04:01:38;;;;;;;;;0.00;0.00;;;;;9.44;73.90;100706.16;5076832;28;50123;-81
2022/11/24 04:04:03;;;;;;;;;1.00;0.00;;;;;9.42;73.83;100715.72;5060121;28;45381;-82
2022/11/24 04:06:29;;;;;;;;;1.00;1.00;;;;;9.41;74.16;100719.19;5077553;28;47402;-82
2022/11/24 04:08:54;;;;;;;;;0.50;0.00;;;;;9.41;74.33;100718.34;5077887;28;45328;-81
2022/11/24 04:14:03;;;;;;;;;0.00;0.00;;;;;9.42;74.16;100725.28;5077156;28;45388;-81
2022/11/24 04:16:29;;;;;;;;;0.75;0.50;;;;;9.39;74.11;100728.78;5077769;28;46126;-81
2022/11/24 04:18:54;;;;;;;;;0.75;0.00;;;;;9.39;74.47;100730.53;5077099;28;68950;-82
2022/11/24 04:21:20;;;;;;;;;1.00;0.00;;;;;9.38;74.42;100723.63;5077040;28;53010;-82
2022/11/24 04:23:45;;;;;;;;;0.25;0.00;;;;;9.37;74.64;100732.31;5075647;28;67083;-82
2022/11/24 04:26:11;;;;;;;;;0.00;0.00;;;;;9.33;74.54;100739.31;5076742;28;46540;-82
2022/11/24 04:28:37;;;;;;;;;2.00;0.00;;;;;9.32;74.48;100744.56;5076365;28;45392;-82
2022/11/24 04:31:03;;;;;;;;;2.25;0.00;;;;;9.29;74.55;100735.09;5077911;28;45506;-81
2022/11/24 04:33:29;;;;;;;;;1.00;0.00;;;;;9.27;75.14;100740.31;5076539;28;45475;-81
2022/11/24 04:35:54;;;;;;;;;0.25;0.25;;;;;9.28;75.07;100746.38;5077220;28;45352;-82
2022/11/24 04:38:19;;;;;;;;;1.50;0.50;;;;;9.25;75.07;100746.47;5075406;28;69551;-82
2022/11/24 04:40:45;;;;;;;;;0.25;0.00;;;;;9.25;74.99;100751.66;5075573;28;56683;-82
2022/11/24 04:43:10;;;;;;;;;2.00;0.00;;;;;9.24;75.17;100750.78;5075554;28;62614;-82
2022/11/24 04:45:36;;;;;;;;;1.75;0.00;;;;;9.22;74.88;100744.75;5077383;27;46233;-82
2022/11/24 04:48:01;;;;;;;;;1.50;0.00;;;;;9.19;74.91;100747.41;5059065;28;45479;-82
2022/11/24 04:50:27;;;;;;;;;1.25;0.00;;;;;9.18;75.36;100750.09;5077259;28;45708;-82
2022/11/24 04:52:52;;;;;;;;;1.00;1.00;;;;;9.17;75.07;100759.59;5076453;28;65652;-82
2022/11/24 04:55:17;;;;;;;;;1.50;0.00;;;;;9.17;75.07;100762.19;5059009;28;54189;-82
2022/11/24 04:57:43;;;;;;;;;0.00;0.00;;;;;9.14;75.21;100770.06;5076732;28;56818;-82
2022/11/24 05:00:09;;;;;;;;;0.00;0.00;;;;;9.13;75.36;100777.88;5059241;28;45273;-82
2022/11/24 05:02:35;;;;;;;;;2.00;0.00;;;;;9.11;75.05;100763.19;5077221;28;45357;-82
2022/11/24 05:05:00;;;;;;;;;1.00;0.00;;;;;9.11;75.21;100772.72;5058566;28;46161;-82
2022/11/24 05:07:25;;;;;;;;;2.00;1.00;;;;;9.12;75.09;100766.66;5058117;28;65227;-82
2022/11/24 05:12:35;;;;;;;;;0.50;0.00;;;;;9.12;75.23;100769.25;5077201;28;45423;-82
2022/11/24 05:15:02;;;;;;;;;2.00;0.00;;;;;9.13;75.18;100773.53;5075928;27;67946;-81
2022/11/24 05:17:32;;;;;;;;;0.50;0.50;;;;;9.14;74.61;100774.38;5076602;28;45353;-82
2022/11/24 05:19:57;;;;;;;;;5.50;0.00;;;;;9.14;74.90;100767.47;5058841;28;45395;-82
2022/11/24 05:22:23;;;;;;;;;0.00;0.00;;;;;9.16;75.25;100768.28;5058741;28;45495;-81
2022/11/24 05:24:48;;;;;;;;;2.00;0.00;;;;;9.17;74.86;100782.97;5058703;28;45816;-82
2022/11/24 05:27:13;;;;;;;;;1.75;0.25;;;;;9.19;75.13;100780.34;5076601;28;50442;-82
2022/11/24 05:29:39;;;;;;;;;1.00;1.00;;;;;9.17;74.86;100782.13;5076838;28;45333;-82
2022/11/24 05:32:04;;;;;;;;;3.00;0.50;;;;;9.17;74.94;100782.97;5076592;28;45396;-81
2022/11/24 05:34:32;;;;;;;;;1.00;0.00;;;;;9.17;74.88;100776.94;5057593;28;66533;-82
2022/11/24 05:37:02;;;;;;;;;0.00;0.00;;;;;9.15;74.77;100782.16;5076625;28;45306;-82
2022/11/24 05:39:36;;;;;;;;;2.00;0.00;;;;;9.15;75.00;100783.91;5076824;28;45381;-82
2022/11/24 05:42:39;;;;;;;;;0.50;0.50;;;;;9.16;75.15;100788.22;5058403;27;45381;-81
2022/11/24 05:44:49;;;;;;;;;6.00;1.00;;;;;9.13;75.20;100783.94;5076315;28;46089;-82
2022/11/24 05:47:14;;;;;;;;;2.00;1.00;;;;;9.11;75.61;100796.94;5074882;27;71060;-82
2022/11/24 05:49:39;;;;;;;;;5.00;1.00;;;;;9.12;75.56;100790.03;5057456;28;58494;-82
2022/11/24 05:52:05;;;;;;;;;3.00;0.00;;;;;9.11;75.53;100802.13;5058397;28;45449;-82
2022/11/24 05:54:30;;;;;;;;;0.50;0.00;;;;;9.13;75.44;100798.66;5073936;28;70264;-82
2022/11/24 05:56:55;;;;;;;;;2.25;0.00;;;;;9.13;75.35;100806.47;5075711;27;65008;-82
2022/11/24 05:59:21;;;;;;;;;1.50;1.00;;;;;9.11;75.53;100807.34;5075417;28;63500;-82
2022/11/24 06:01:46;;;;;;;;;0.00;0.00;;;;;9.10;74.82;100813.44;5057145;28;64463;-82
2022/11/24 06:04:12;;;;;;;;;2.00;0.75;;;;;9.11;75.36;100814.28;5076234;28;46626;-82
2022/11/24 06:06:37;;;;;;;;;1.00;0.00;;;;;9.11;75.44;100820.31;5057263;28;62009;-82
2022/11/24 06:09:03;;;;;;;;;2.00;0.00;;;;;9.11;75.36;100828.09;5040515;28;63755;-82
2022/11/24 06:11:29;;;;;;;;;2.00;0.00;;;;;9.10;75.33;100823.81;5075912;27;45496;-81
2022/11/24 06:13:54;;;;;;;;;0.00;0.00;;;;;9.11;75.36;100828.09;5058062;28;46624;-82
2022/11/24 06:16:19;;;;;;;;;1.00;1.00;;;;;9.09;75.23;100834.22;5056825;28;59790;-82
2022/11/24 06:18:45;;;;;;;;;3.75;1.00;;;;;9.06;75.76;100835.16;5074624;28;64710;-82
2022/11/24 06:21:10;;;;;;;;;0.00;0.00;;;;;9.05;75.82;100845.56;5057083;28;67899;-83
2022/11/24 06:23:35;;;;;;;;;1.00;1.00;;;;;9.03;75.48;100848.19;5057832;28;45593;-82
2022/11/24 06:26:01;;;;;;;;;1.00;0.50;;;;;9.00;75.87;100845.66;5075833;28;45372;-81
2022/11/24 06:28:26;;;;;;;;;5.50;2.00;;;;;9.00;75.87;100845.66;5075869;28;45349;-80
2022/11/24 06:30:52;;;;;;;;;5.50;2.00;;;;;8.99;75.78;100853.47;5075547;27;45376;-82
2022/11/24 06:33:18;;;;;;;;;1.50;0.50;;;;;8.98;76.31;100856.97;5075755;27;47331;-82
2022/11/24 06:35:43;;;;;;;;;5.25;2.25;;;;;8.94;76.35;100861.38;5057569;28;45965;-81
2022/11/24 06:38:09;;;;;;;;;3.00;1.25;;;;;8.94;76.43;100868.31;5057127;28;62115;-81
2022/11/24 06:40:34;;;;;;;;;1.50;0.25;;;;;8.93;76.18;100866.59;5075679;28;45891;-82
2022/11/24 06:42:59;;;;;;;;;2.75;1.00;;;;;8.93;76.52;100869.19;5074884;28;71401;-82
2022/11/24 06:45:25;;;;;;;;;1.75;0.00;;;;;8.94;76.54;100868.31;5056781;28;56794;-82
2022/11/24 06:47:54;;;;;;;;;2.50;0.00;;;;;8.93;76.53;100870.03;5057254;28;45417;-81
2022/11/24 06:50:20;;;;;;;;;2.75;0.50;;;;;8.91;76.40;100875.28;5057459;28;45472;-81
2022/11/24 06:52:45;;;;;;;;;0.50;0.00;;;;;8.89;77.15;100879.63;5075017;28;45462;-83
2022/11/24 06:55:10;;;;;;;;;6.50;0.00;;;;;8.88;76.51;100888.31;5073269;28;70131;-83
2022/11/24 06:57:36;;;;;;;;;1.25;1.00;;;;;8.85;77.07;100885.75;5057198;28;45482;-82
2022/11/24 07:00:03;;;;;;;;;0.00;0.00;;;;;8.87;76.48;100890.94;5074984;28;45359;-82
2022/11/24 07:02:29;;;;;;;;;1.00;0.00;;;;;8.84;76.58;100889.25;5075196;28;46249;-83
2022/11/24 07:04:54;;;;;;;;;2.75;0.50;;;;;8.85;77.05;100895.28;5040011;28;45304;-83
2022/11/24 07:07:19;;;;;;;;;1.75;0.00;;;;;8.84;77.36;100899.63;5056522;28;57891;-82
2022/11/24 07:09:45;;;;;;;;;5.25;1.00;;;;;8.82;77.23;100909.19;5074425;28;62997;-83
2022/11/24 07:12:10;;;;;;;;;1.00;1.00;;;;;8.81;77.17;100917.84;5074064;28;74344;-83
2022/11/24 07:14:35;;;;;;;;;4.00;0.00;;;;;8.79;77.31;100917.03;5056325;28;59271;-83
2022/11/24 07:17:01;;;;;;;;;0.00;0.00;;;;;8.78;77.38;100912.72;5056940;28;50890;-83
2022/11/24 07:19:26;;;;;;;;;1.00;1.00;;;;;8.76;77.54;100917.09;5057364;28;45352;-83
2022/11/24 07:21:52;;;;;;;;;2.00;0.00;;;;;8.77;77.51;100924.00;5074645;28;63352;-83
2022/11/24 07:24:17;;;;;;;;;4.00;0.00;;;;;8.79;77.44;100934.34;5075096;28;45457;-83
2022/11/24 07:26:43;;;;;;;;;3.50;1.00;;;;;8.78;77.35;100940.41;5075263;28;45354;-83
2022/11/24 07:29:08;;;;;;;;;1.00;0.00;;;;;8.77;77.77;100938.72;5055810;28;68720;-83
2022/11/24 07:31:33;;;;;;;;;3.50;0.25;;;;;8.78;77.91;100936.06;5076754;27;45548;-83
2022/11/24 07:33:59;;;;;;;;;2.00;1.00;;;;;8.82;77.60;100936.88;5078643;27;45409;-83
2022/11/24 07:36:24;;;;;;;;;2.00;1.00;;;;;8.82;77.54;100929.09;5078051;27;51263;-83
2022/11/24 07:38:50;;;;;;;;;2.75;1.00;;;;;8.83;77.79;100938.59;5078468;28;45528;-83
2022/11/24 07:41:18;;;;;;;;;2.00;0.75;;;;;8.84;77.44;100933.38;5059309;27;71014;-83
2022/11/24 07:43:44;;;;;;;;;1.50;0.50;;;;;8.87;77.20;100940.25;5078083;28;45518;-83
2022/11/24 07:46:12;;;;;;;;;1.75;1.00;;;;;8.89;77.65;100952.31;5077302;27;45407;-83
2022/11/24 07:48:38;;;;;;;;;4.25;1.50;;;;;8.92;77.55;100961.78;5059909;28;45631;-83
2022/11/24 07:51:03;;;;;;;;;0.50;0.50;;;;;8.96;77.24;100967.78;5077830;27;64221;-83
2022/11/24 07:53:29;;;;;;;;;5.00;1.25;;;;;8.97;77.38;100964.28;5059730;28;45393;-82
2022/11/24 07:55:59;;;;;;;;;2.75;0.00;;;;;8.98;77.67;100968.63;5059809;28;45432;-84
2022/11/24 07:58:27;;;;;;;;;1.00;1.00;;;;;8.97;77.56;100975.56;5075696;27;45583;-85
2022/11/24 08:00:52;;;;;;;;;4.00;1.00;;;;;8.99;77.34;100967.72;5058932;28;47420;-84
2022/11/24 08:03:17;;;;;;;;;2.25;0.00;;;;;8.99;77.83;100975.50;5048225;27;65431;-82
2022/11/24 08:05:43;;;;;;;;;1.50;1.00;;;;;9.00;77.70;100975.47;5068456;28;69795;-83
2022/11/24 08:08:08;;;;;;;;;3.75;0.50;;;;;9.04;77.62;100978.88;5084461;27;45526;-82
2022/11/24 08:10:33;;;;;;;;;1.00;1.00;;;;;9.06;77.82;100980.56;5079182;27;65112;-81
2022/11/24 08:12:59;;;;;;;;;1.50;1.00;;;;;9.13;77.90;100976.09;5086509;27;68449;-81
2022/11/24 08:15:25;;;;;;;;;5.00;2.00;;;;;9.21;77.56;100983.75;5066329;27;45493;-81
2022/11/24 08:17:51;;;;;;;;;3.50;1.00;;;;;9.25;77.31;100988.03;5096656;27;45677;-83
2022/11/24 08:20:16;;;;;;;;;3.25;1.00;;;;;9.29;77.20;101000.06;5049180;28;64682;-82
2022/11/24 08:22:42;;;;;;;;;3.75;2.00;;;;;9.30;77.21;100997.44;5076607;28;45391;-84
2022/11/24 08:25:07;;;;;;;;;2.25;1.00;;;;;9.33;77.26;101006.06;5058413;28;45653;-82
2022/11/24 08:27:33;;;;;;;;;5.75;0.00;;;;;9.37;77.29;101005.94;5087029;27;45471;-82
2022/11/24 08:29:58;;;;;;;;;0.75;0.00;;;;;9.44;76.87;101017.09;5057807;28;67398;-82
2022/11/24 08:32:23;;;;;;;;;1.00;0.75;;;;;9.46;76.86;101016.16;5059310;28;45383;-82
2022/11/24 08:34:49;;;;;;;;;2.50;1.50;;;;;9.49;76.73;101025.66;5057540;28;69349;-82
2022/11/24 08:37:14;;;;;;;;;5.00;1.00;;;;;9.50;76.94;101027.34;5041628;28;56620;-82
2022/11/24 08:39:39;;;;;;;;;2.25;2.25;;;;;9.55;76.98;101033.31;5076169;28;70729;-81
2022/11/24 08:42:05;;;;;;;;;2.00;1.00;;;;;9.59;76.85;101034.97;5057098;28;63981;-83
2022/11/24 08:44:30;;;;;;;;;1.50;1.00;;;;;9.63;76.56;101034.00;5058918;28;45335;-82
2022/11/24 08:46:55;;;;;;;;;1.00;1.00;;;;;9.66;76.75;101036.56;5076827;28;45592;-81
2022/11/24 08:49:21;;;;;;;;;0.00;0.00;;;;;9.68;76.55;101028.72;5092462;27;58402;-81
2022/11/24 08:51:47;;;;;;;;;0.25;0.25;;;;;9.74;76.80;101030.34;5096647;27;68961;-82
2022/11/24 08:54:14;;;;;;;;;2.75;2.75;;;;;9.79;76.30;101028.50;5097384;27;45648;-82
2022/11/24 08:56:39;;;;;;;;;2.75;2.00;;;;;9.85;76.60;101034.41;5096955;27;45433;-82
2022/11/24 08:59:05;;;;;;;;;3.75;1.25;;;;;9.93;76.44;101031.66;5096638;27;58642;-81
2022/11/24 09:01:30;;;;;;;;;0.00;0.00;;;;;10.00;76.52;101028.03;5096855;27;61472;-81
2022/11/24 09:03:56;;;;;;;;;4.00;2.00;;;;;10.05;75.93;101023.59;5079076;27;45437;-81
2022/11/24 09:06:24;;;;;;;;;2.00;0.75;;;;;10.10;75.87;101039.09;5097413;27;45494;-81
2022/11/24 09:08:50;;;;;;;;;1.00;1.00;;;;;10.10;75.82;101033.03;5078905;27;45230;-82
2022/11/24 09:11:16;;;;;;;;;2.00;1.00;;;;;10.09;75.64;101034.78;5065947;27;45277;-81
2022/11/24 09:13:43;;;;;;;;;2.50;1.00;;;;;10.10;75.85;101033.88;5075190;28;45513;-81
2022/11/24 09:16:11;;;;;;;;;5.75;0.00;;;;;10.11;75.68;101038.22;5051254;27;45601;-81
2022/11/24 09:18:36;;;;;;;;;6.00;1.00;;;;;10.13;75.64;101033.81;5071582;28;45453;-81
2022/11/24 09:21:12;;;;;;;;;2.25;0.75;;;;;10.21;75.87;101042.31;5052671;27;46497;-80
2022/11/24 09:23:37;;;;;;;;;2.25;1.00;;;;;10.28;75.70;101048.22;5066811;27;45506;-80
2022/11/24 09:26:05;;;;;;;;;2.00;1.00;;;;;10.38;75.65;101041.97;5077432;27;45437;-81
2022/11/24 09:28:30;;;;;;;;;4.50;1.50;;;;;10.53;75.51;101045.97;5058157;28;45502;-81
2022/11/24 09:31:05;;;;;;;;;2.75;1.25;;;;;10.67;75.02;101045.63;5069540;27;45523;-81
2022/11/24 09:33:31;;;;;;;;;1.50;1.50;;;;;10.77;75.08;101038.44;5054709;28;45681;-82
2022/11/24 09:35:57;;;;;;;;;4.75;0.00;;;;;10.85;74.48;101026.09;5070864;27;45399;-81
2022/11/24 09:38:23;;;;;;;;;1.00;1.00;;;;;10.89;74.38;101026.88;5086791;27;45511;-81
2022/11/24 09:40:49;;;;;;;;;0.00;0.00;;;;;10.93;74.16;101023.28;5084381;27;45520;-81
2022/11/24 09:43:40;;;;;;;;;2.50;1.75;;;;;10.98;73.43;101032.69;5058987;27;45410;-81
2022/11/24 09:46:19;;;;;;;;;2.00;1.00;;;;;11.02;73.55;101030.84;5061756;28;45420;-81
2022/11/24 09:48:46;;;;;;;;;1.25;0.00;;;;;11.07;73.41;101026.38;5051078;28;45310;-81
2022/11/24 09:51:14;;;;;;;;;1.00;1.00;;;;;11.13;73.30;101030.59;5062887;28;45829;-80
2022/11/24 09:53:46;;;;;;;;;2.00;2.00;;;;;11.17;73.37;101032.19;5072269;27;45375;-81
2022/11/24 09:56:23;;;;;;;;;1.00;1.00;;;;;11.19;73.25;101039.06;5084009;27;45406;-81
2022/11/24 09:58:50;;;;;;;;;1.00;1.00;;;;;11.23;72.89;101042.44;5044165;28;45435;-81
2022/11/24 10:01:25;;;;;;;;;1.75;1.00;;;;;11.24;73.07;101045.03;5055407;28;45721;-80
2022/11/24 10:03:52;;;;;;;;;2.25;0.75;;;;;11.31;73.12;101050.94;5077693;27;45301;-81
2022/11/24 10:06:25;;;;;;;;;9.50;0.00;;;;;11.34;72.72;101050.84;5060785;27;45394;-80
2022/11/24 10:08:59;;;;;;;;;2.75;1.00;;;;;11.36;72.27;101043.81;5072850;28;46778;-81
2022/11/24 10:11:35;;;;;;;;;2.00;1.00;;;;;11.41;72.64;101036.75;5041770;28;46105;-81
2022/11/24 10:14:49;;;;;;;;;3.00;2.00;;;;;11.48;72.12;101047.88;5046129;28;45431;-81
2022/11/24 10:17:23;;;;;;;;;3.00;1.25;;;;;11.55;72.13;101032.88;5012809;28;45438;-81
2022/11/24 10:20:18;;;;;;;;;3.00;2.00;;;;;11.65;72.14;101028.28;5016387;28;45442;-81
2022/11/24 10:23:02;;;;;;;;;1.25;1.00;;;;;11.73;72.12;101021.94;4979895;28;47486;-81
2022/11/24 10:25:39;;;;;;;;;4.25;2.50;;;;;11.81;71.51;101021.69;5003117;28;45504;-81
2022/11/24 10:28:09;;;;;;;;;9.00;2.25;;;;;11.89;71.78;101011.06;5011872;28;45323;-81
2022/11/24 10:30:34;;;;;;;;;6.00;1.50;;;;;11.97;71.12;101012.56;5011826;28;46384;-81
2022/11/24 10:33:05;;;;;;;;;2.50;1.00;;;;;12.05;70.85;101017.53;4990834;28;67443;-81
2022/11/24 10:35:40;;;;;;;;;6.25;1.75;;;;;12.19;70.65;101012.75;4994702;28;45904;-81
2022/11/24 10:38:39;;;;;;;;;7.50;1.25;;;;;12.32;70.34;101015.00;4994974;28;45283;-81
2022/11/24 10:41:07;;;;;;;;;6.00;1.00;;;;;12.48;70.05;101011.00;4994197;28;45567;-81
2022/11/24 10:43:33;;;;;;;;;0.50;0.50;;;;;12.64;70.41;100997.41;5016673;28;45492;-81
2022/11/24 10:46:22;;;;;;;;;2.25;1.00;;;;;12.85;70.02;101003.66;5016295;28;65082;-81
2022/11/24 10:48:55;;;;;;;;;3.50;0.00;;;;;13.03;69.44;101010.88;4992503;28;45626;-81
2022/11/24 10:51:43;;;;;;;;;1.75;1.00;;;;;13.24;68.74;101008.41;4993086;28;45827;-81
2022/11/24 10:54:15;;;;;;;;;2.75;1.00;;;;;13.46;68.68;101001.53;5031200;28;45511;-82
2022/11/24 10:56:42;;;;;;;;;0.25;0.25;;;;;13.85;67.35;100998.31;5068857;28;45683;-81
2022/11/24 10:59:22;;;;;;;;;2.00;1.00;;;;;14.90;66.97;100999.38;5062565;27;45679;-81
2022/11/24 11:01:48;;;;;;;;;4.00;0.00;;;;;16.23;65.29;100996.84;5062635;27;46529;-81
2022/11/24 11:04:19;;;;;;;;;3.00;1.00;;;;;17.40;61.88;100991.81;5046205;28;45436;-81
2022/11/24 11:06:44;;;;;;;;;3.25;1.00;;;;;18.49;59.36;100994.63;5059489;28;45400;-81
2022/11/24 11:09:13;;;;;;;;;0.75;0.75;;;;;19.37;57.05;100981.47;5054966;28;45400;-81
2022/11/24 11:11:39;;;;;;;;;2.00;1.00;;;;;20.24;55.81;100975.91;5069383;28;46396;-81
2022/11/24 11:14:09;;;;;;;;;1.25;1.00;;;;;21.18;52.57;100982.84;5065807;27;45455;-81
2022/11/24 11:16:44;;;;;;;;;2.50;1.50;;;;;21.88;51.51;100978.81;5093217;27;45412;-81
2022/11/24 11:19:35;;;;;;;;;3.25;1.00;;;;;22.37;50.21;100974.38;5046262;27;45591;-81
2022/11/24 11:22:18;;;;;;;;;3.00;1.00;;;;;23.32;49.29;100968.88;5076812;28;46710;-81
2022/11/24 11:24:45;;;;;;;;;1.25;1.00;;;;;24.15;47.59;100972.84;5077408;28;45713;-81
2022/11/24 11:27:26;;;;;;;;;5.00;1.00;;;;;24.50;44.56;100967.25;5059398;28;45376;-81
2022/11/24 11:29:51;;;;;;;;;2.00;1.00;;;;;24.60;43.92;100962.03;5059554;28;45499;-81
2022/11/24 11:32:25;;;;;;;;;2.00;1.00;;;;;24.25;44.38;100952.50;5056381;28;74870;-81
2022/11/24 11:34:52;;;;;;;;;5.00;1.00;;;;;24.10;44.45;100943.97;5076973;28;45765;-82
2022/11/24 11:37:19;;;;;;;;;4.50;1.00;;;;;24.29;43.30;100943.31;5058957;28;45610;-81